Time;durP1;ratioP1;P1;durP2;ratioP2;P2;SDS_P1;SDS_P2;PMS_P1;PMS_P2;Temp;Humidity;BMP_temperature;BMP_pressure;BME280_temperature;BME280_humidity;BME280_pressure;Samples;Min_cycle;Max_cycle;Signal;HPM_P1;HPM_P2
2022/01/09 00:00:00;;;;;;;0.20;0.20;;;;;;;5.39;100.00;96290.66;5023701;28;20068;-67
2022/01/09 00:02:26;;;;;;;3.03;0.30;;;;;;;5.47;100.00;96304.28;5022932;28;20321;-67
2022/01/09 00:04:51;;;;;;;0.15;0.15;;;;;;;5.62;100.00;96303.72;5023897;28;20093;-67
2022/01/09 00:07:17;;;;;;;0.30;0.30;;;;;;;5.54;100.00;96296.16;5023828;28;20025;-67
2022/01/09 00:09:44;;;;;;;0.40;0.40;;;;;;;5.53;100.00;96293.59;5023792;28;20233;-67
2022/01/09 00:12:10;;;;;;;0.20;0.20;;;;;;;5.49;100.00;96281.59;5024268;28;20046;-67
2022/01/09 00:14:36;;;;;;;2.60;0.38;;;;;;;5.53;100.00;96289.25;5023706;28;20093;-67
2022/01/09 00:17:02;;;;;;;0.30;0.25;;;;;;;5.61;100.00;96282.00;5022978;28;20041;-67
2022/01/09 00:19:28;;;;;;;0.20;0.20;;;;;;;5.65;100.00;96283.59;5010529;28;20021;-67
2022/01/09 00:21:53;;;;;;;0.17;0.17;;;;;;;5.65;100.00;96286.19;5003903;28;20085;-67
2022/01/09 00:24:19;;;;;;;1.38;0.52;;;;;;;5.78;100.00;96294.41;5003822;28;20254;-67
2022/01/09 00:26:44;;;;;;;0.65;0.40;;;;;;;5.88;100.00;96293.16;5004834;28;20038;-67
2022/01/09 00:29:10;;;;;;;0.20;0.20;;;;;;;5.70;100.00;96291.25;5003461;28;20022;-67
2022/01/09 00:31:36;;;;;;;0.60;0.20;;;;;;;5.74;100.00;96272.81;5003783;28;20026;-67
2022/01/09 00:34:02;;;;;;;0.43;0.38;;;;;;;5.64;100.00;96275.81;5003782;28;20022;-67
2022/01/09 00:36:28;;;;;;;0.80;0.32;;;;;;;5.60;100.00;96287.28;5014512;28;20080;-67
2022/01/09 00:38:53;;;;;;;0.50;0.50;;;;;;;5.66;100.00;96294.88;5023239;28;20052;-67
2022/01/09 00:41:19;;;;;;;0.30;0.30;;;;;;;5.67;100.00;96292.19;5023275;28;20025;-67
2022/01/09 00:43:44;;;;;;;0.20;0.20;;;;;;;5.88;100.00;96301.00;5017784;28;20068;-67
2022/01/09 00:46:10;;;;;;;0.20;0.20;;;;;;;5.73;100.00;96301.56;5003621;28;20037;-67
2022/01/09 00:48:35;;;;;;;0.10;0.10;;;;;;;5.66;100.00;96300.94;5003606;28;20022;-67
2022/01/09 00:51:01;;;;;;;0.17;0.17;;;;;;;5.66;100.00;96310.53;5003528;28;20029;-67
2022/01/09 00:53:26;;;;;;;0.30;0.30;;;;;;;5.61;100.00;96299.41;5003788;28;20026;-67
2022/01/09 00:55:52;;;;;;;0.65;0.30;;;;;;;5.61;100.00;96313.31;5004541;28;20022;-67
2022/01/09 00:58:17;;;;;;;0.80;0.45;;;;;;;5.51;100.00;96304.09;5004646;28;20074;-67
2022/01/09 01:00:43;;;;;;;0.30;0.30;;;;;;;5.46;100.00;96303.44;5003490;28;20023;-67
2022/01/09 01:03:08;;;;;;;1.08;0.40;;;;;;;5.44;100.00;96314.84;5006538;28;20022;-67
2022/01/09 01:05:34;;;;;;;0.20;0.20;;;;;;;5.57;100.00;96316.91;5022837;28;20026;-67
2022/01/09 01:07:59;;;;;;;0.17;0.17;;;;;;;5.46;100.00;96318.22;5022642;28;20034;-67
2022/01/09 01:10:25;;;;;;;0.28;0.25;;;;;;;5.29;100.00;96315.38;5006359;28;20030;-67
2022/01/09 01:12:50;;;;;;;0.20;0.20;;;;;;;5.30;100.00;96322.28;5003652;28;20291;-67
2022/01/09 01:15:16;;;;;;;0.88;0.38;;;;;;;5.22;100.00;96314.72;5004928;28;20061;-67
2022/01/09 01:17:41;;;;;;;0.77;0.40;;;;;;;5.20;100.00;96320.91;5021862;28;20080;-67
2022/01/09 01:20:08;;;;;;;0.45;0.38;;;;;;;5.37;100.00;96323.75;5022913;28;20071;-67
2022/01/09 01:22:35;;;;;;;0.20;0.20;;;;;;;5.28;100.00;96314.50;5022450;28;20343;-67
2022/01/09 01:25:01;;;;;;;0.43;0.30;;;;;;;5.27;100.00;96312.81;5023192;28;20026;-67
2022/01/09 01:27:27;;;;;;;1.50;0.43;;;;;;;5.31;100.00;96313.56;5022740;28;20046;-67
2022/01/09 01:29:52;;;;;;;0.43;0.40;;;;;;;5.33;100.00;96306.53;5022543;28;20049;-67
2022/01/09 01:32:18;;;;;;;0.38;0.35;;;;;;;5.38;100.00;96304.63;5022329;28;20033;-67
2022/01/09 01:34:43;;;;;;;0.50;0.50;;;;;;;5.36;100.00;96316.84;5022438;28;20018;-67
2022/01/09 01:37:09;;;;;;;1.25;0.70;;;;;;;5.39;100.00;96308.91;5022806;28;20089;-67
2022/01/09 01:39:34;;;;;;;2.63;0.43;;;;;;;5.48;100.00;96321.63;5025426;28;20032;-67
2022/01/09 01:41:59;;;;;;;0.43;0.40;;;;;;;5.53;100.00;96319.69;5024849;28;20029;-67
2022/01/09 01:44:25;;;;;;;4.10;0.40;;;;;;;5.46;100.00;96323.44;5026470;28;20026;-67
2022/01/09 01:46:51;;;;;;;0.68;0.55;;;;;;;5.55;100.00;96337.00;5025955;28;20093;-67
2022/01/09 01:49:16;;;;;;;2.08;1.00;;;;;;;5.61;100.00;96338.53;5026154;28;20091;-67
2022/01/09 01:51:43;;;;;;;3.30;0.70;;;;;;;5.56;100.00;96340.44;5026113;28;20045;-67
2022/01/09 01:54:10;;;;;;;1.45;0.98;;;;;;;5.51;100.00;96342.41;5026312;28;20029;-67
2022/01/09 01:56:36;;;;;;;0.60;0.60;;;;;;;5.51;100.00;96353.66;5024933;28;20029;-67
2022/01/09 01:59:02;;;;;;;3.40;1.15;;;;;;;5.47;100.00;96352.06;5025979;28;20208;-67
2022/01/09 02:01:28;;;;;;;1.42;0.80;;;;;;;5.46;100.00;96357.34;5025398;28;20222;-67
2022/01/09 02:03:53;;;;;;;1.35;0.90;;;;;;;5.49;100.00;96360.72;5026138;28;20030;-67
2022/01/09 02:06:20;;;;;;;1.77;1.17;;;;;;;5.44;100.00;96361.78;5024254;28;20034;-67
2022/01/09 02:08:45;;;;;;;3.92;0.90;;;;;;;5.58;100.00;96367.34;5007540;28;20034;-67
2022/01/09 02:11:11;;;;;;;4.25;0.65;;;;;;;5.50;100.00;96366.75;5013591;28;20093;-67
2022/01/09 02:13:40;;;;;;;1.95;0.98;;;;;;;5.55;100.00;96375.28;5026864;28;20033;-67
2022/01/09 02:16:07;;;;;;;1.08;0.82;;;;;;;5.59;100.00;96371.66;5025280;28;20028;-67
2022/01/09 02:18:32;;;;;;;0.80;0.50;;;;;;;5.65;100.00;96380.13;5026332;28;20032;-67
2022/01/09 02:20:58;;;;;;;2.13;0.77;;;;;;;5.63;100.00;96379.31;5026255;28;20045;-67
2022/01/09 02:23:23;;;;;;;0.52;0.50;;;;;;;5.59;100.00;96388.16;5026868;28;20029;-67
2022/01/09 02:25:50;;;;;;;1.50;0.77;;;;;;;5.61;100.00;96395.94;5026454;28;20238;-67
2022/01/09 02:28:16;;;;;;;1.08;0.60;;;;;;;5.64;100.00;96401.06;5026654;28;20324;-67
2022/01/09 02:30:43;;;;;;;1.42;0.63;;;;;;;5.80;100.00;96428.31;5026583;28;20348;-67
2022/01/09 02:33:13;;;;;;;0.68;0.43;;;;;;;5.76;100.00;96437.97;5026536;28;20068;-67
2022/01/09 02:35:39;;;;;;;0.40;0.40;;;;;;;5.81;100.00;96435.22;5026515;28;20025;-67
2022/01/09 02:38:06;;;;;;;0.60;0.32;;;;;;;5.73;100.00;96452.91;5026657;28;20017;-67
2022/01/09 02:40:32;;;;;;;0.20;0.20;;;;;;;5.64;100.00;96458.44;5020817;28;20026;-67
2022/01/09 02:42:58;;;;;;;1.40;0.40;;;;;;;5.57;100.00;96459.56;5021824;28;20032;-67
2022/01/09 02:45:25;;;;;;;0.35;0.28;;;;;;;5.70;100.00;96471.28;5026047;28;20026;-67
2022/01/09 02:47:52;;;;;;;1.05;0.30;;;;;;;5.62;100.00;96481.13;5026513;28;20097;-67
2022/01/09 02:52:53;;;;;;;0.40;0.40;;;;;;;5.68;100.00;96497.44;5026206;28;20029;-67
2022/01/09 02:55:20;;;;;;;0.35;0.30;;;;;;;5.72;100.00;96503.38;5025870;28;20036;-67
2022/01/09 02:57:48;;;;;;;0.75;0.38;;;;;;;5.61;99.54;96521.19;5024708;28;20371;-67
2022/01/09 03:00:27;;;;;;;0.15;0.10;;;;;;;5.79;99.61;96525.78;5011282;28;20345;-67
2022/01/09 03:02:52;;;;;;;0.17;0.17;;;;;;;5.63;98.69;96529.81;5006311;28;20026;-67
2022/01/09 03:05:18;;;;;;;0.20;0.20;;;;;;;5.51;99.20;96540.66;5006636;28;20377;-67
2022/01/09 03:07:44;;;;;;;0.22;0.10;;;;;;;5.39;98.66;96551.47;5006281;28;20378;-67
2022/01/09 03:10:11;;;;;;;0.20;0.20;;;;;;;5.31;99.03;96558.72;5006226;28;20032;-67
2022/01/09 03:12:38;;;;;;;0.63;0.30;;;;;;;5.42;98.87;96569.63;5006711;28;20026;-67
2022/01/09 03:15:05;;;;;;;0.45;0.40;;;;;;;5.37;98.66;96582.81;5006160;28;20098;-67
2022/01/09 03:17:31;;;;;;;0.20;0.20;;;;;;;5.14;99.55;96587.03;5024144;28;20340;-67
2022/01/09 03:19:56;;;;;;;0.10;0.10;;;;;;;5.22;98.76;96600.72;5025632;28;20033;-67
2022/01/09 03:22:21;;;;;;;0.45;0.30;;;;;;;5.14;98.57;96613.13;5024998;28;20052;-67
2022/01/09 03:24:47;;;;;;;0.30;0.30;;;;;;;5.04;98.98;96611.69;5025466;28;20225;-67
2022/01/09 03:27:12;;;;;;;2.83;0.40;;;;;;;5.18;99.44;96627.75;5025367;28;20060;-67
2022/01/09 03:29:38;;;;;;;4.07;0.30;;;;;;;4.97;98.50;96631.84;5025444;28;20029;-67
2022/01/09 03:32:05;;;;;;;0.43;0.22;;;;;;;4.89;99.05;96646.00;5025440;28;20337;-67
2022/01/09 03:34:31;;;;;;;0.25;0.20;;;;;;;4.75;99.60;96653.38;5021552;28;20033;-67
2022/01/09 03:36:56;;;;;;;0.80;0.20;;;;;;;4.73;99.82;96668.19;5007028;28;20081;-67
2022/01/09 03:39:22;;;;;;;0.13;0.13;;;;;;;4.62;100.00;96670.25;5005664;28;20022;-67
2022/01/09 03:41:47;;;;;;;0.10;0.10;;;;;;;4.68;99.43;96680.50;5005544;28;20092;-67
2022/01/09 03:44:12;;;;;;;0.20;0.20;;;;;;;4.64;100.00;96686.69;5005606;28;20250;-67
2022/01/09 03:46:38;;;;;;;0.13;0.13;;;;;;;4.53;99.92;96695.63;5005795;28;20082;-67
2022/01/09 03:49:03;;;;;;;0.10;0.10;;;;;;;4.53;100.00;96696.53;5005473;28;20029;-67
2022/01/09 03:51:33;;;;;;;0.20;0.20;;;;;;;4.53;100.00;96700.00;5010856;28;20026;-67
2022/01/09 03:53:59;;;;;;;0.52;0.30;;;;;;;4.44;100.00;96718.47;5025316;28;20309;-67
2022/01/09 03:56:25;;;;;;;0.55;0.35;;;;;;;4.48;100.00;96715.75;5024574;28;20064;-67
2022/01/09 03:58:51;;;;;;;1.38;0.45;;;;;;;4.48;100.00;96722.72;5025066;28;20067;-67
2022/01/09 04:01:16;;;;;;;0.75;0.40;;;;;;;4.49;100.00;96725.28;5015999;28;20021;-67
2022/01/09 04:03:42;;;;;;;0.17;0.17;;;;;;;4.45;100.00;96736.66;5005466;28;20085;-67
2022/01/09 04:06:08;;;;;;;1.45;0.50;;;;;;;4.46;100.00;96737.50;5005141;28;20018;-67
2022/01/09 04:08:34;;;;;;;0.63;0.40;;;;;;;4.47;100.00;96750.50;5005149;28;20022;-67
2022/01/09 04:11:02;;;;;;;0.17;0.17;;;;;;;4.56;100.00;96753.78;5005100;28;20214;-67
2022/01/09 04:13:28;;;;;;;0.50;0.30;;;;;;;4.54;100.00;96766.84;5005057;28;20253;-67
2022/01/09 04:15:53;;;;;;;6.22;0.50;;;;;;;4.50;100.00;96766.03;5006166;28;20022;-67
2022/01/09 04:18:21;;;;;;;0.75;0.40;;;;;;;4.57;100.00;96774.56;5024624;28;20021;-67
2022/01/09 04:20:47;;;;;;;1.15;0.47;;;;;;;4.78;100.00;96780.97;5019897;28;20018;-67
2022/01/09 04:23:13;;;;;;;4.75;1.00;;;;;;;4.81;100.00;96788.72;5004841;28;20310;-67
2022/01/09 04:25:40;;;;;;;0.30;0.30;;;;;;;4.72;100.00;96786.34;5004809;28;20038;-67
2022/01/09 04:28:06;;;;;;;2.55;0.60;;;;;;;4.76;100.00;96803.59;5004839;28;20024;-67
2022/01/09 04:30:31;;;;;;;1.30;0.47;;;;;;;4.77;100.00;96805.34;5004830;28;20052;-67
2022/01/09 04:32:56;;;;;;;1.33;0.50;;;;;;;4.78;100.00;96807.03;5004767;28;20025;-67
2022/01/09 04:35:22;;;;;;;1.15;0.40;;;;;;;4.85;100.00;96808.59;5004703;28;20057;-67
2022/01/09 04:37:48;;;;;;;1.15;0.80;;;;;;;4.75;100.00;96815.81;5004696;28;20218;-67
2022/01/09 04:40:16;;;;;;;0.80;0.52;;;;;;;4.75;100.00;96822.75;5004913;28;20318;-67
2022/01/09 04:42:45;;;;;;;0.50;0.50;;;;;;;4.71;100.00;96826.34;5004798;28;20187;-67
2022/01/09 04:45:13;;;;;;;2.13;0.82;;;;;;;4.73;100.00;96835.81;5004817;28;20022;-67
2022/01/09 04:47:42;;;;;;;0.40;0.40;;;;;;;4.69;100.00;96843.75;5004547;28;20030;-67
2022/01/09 04:50:12;;;;;;;1.98;0.60;;;;;;;4.81;100.00;96848.66;5004477;28;20053;-67
2022/01/09 04:52:39;;;;;;;2.78;0.88;;;;;;;4.90;100.00;96844.06;5004733;28;20024;-67
2022/01/09 04:55:04;;;;;;;4.38;0.93;;;;;;;4.94;100.00;96844.84;5004455;28;20018;-67
2022/01/09 04:57:30;;;;;;;1.70;0.60;;;;;;;4.85;100.00;96851.16;5022521;28;20341;-67
2022/01/09 04:59:55;;;;;;;3.83;0.60;;;;;;;5.10;100.00;96856.59;5024088;28;20322;-67
2022/01/09 05:02:21;;;;;;;4.18;1.00;;;;;;;4.97;99.19;96860.41;5022632;28;20314;-67
2022/01/09 05:04:46;;;;;;;0.80;0.50;;;;;;;4.94;100.00;96868.31;5024028;28;20085;-67
2022/01/09 05:07:12;;;;;;;5.13;0.88;;;;;;;5.08;99.84;96874.88;5023470;28;20026;-67
2022/01/09 05:09:37;;;;;;;2.78;0.77;;;;;;;4.99;99.95;96879.44;5023772;28;20045;-67
2022/01/09 05:12:03;;;;;;;4.00;1.13;;;;;;;5.02;100.00;96885.44;5017332;28;20014;-67
2022/01/09 05:14:28;;;;;;;8.70;1.77;;;;;;;4.96;100.00;96885.59;5006932;28;20089;-67
2022/01/09 05:16:54;;;;;;;3.88;1.08;;;;;;;4.89;100.00;96888.41;5008280;28;20026;-67
2022/01/09 05:19:22;;;;;;;5.80;1.33;;;;;;;4.82;100.00;96897.28;5008252;28;20072;-67
2022/01/09 05:21:49;;;;;;;1.83;0.98;;;;;;;4.83;100.00;96898.97;5008440;28;20222;-67
2022/01/09 05:24:15;;;;;;;11.88;1.92;;;;;;;4.85;99.87;96898.06;5007953;28;20080;-67
2022/01/09 05:26:41;;;;;;;2.88;0.77;;;;;;;4.97;99.97;96922.97;5008062;28;20122;-67
2022/01/09 05:29:07;;;;;;;2.22;1.10;;;;;;;5.01;99.57;96911.56;5008085;28;20022;-67
2022/01/09 05:31:32;;;;;;;4.47;1.33;;;;;;;4.87;99.09;96918.88;5008164;28;20029;-67
2022/01/09 05:33:57;;;;;;;3.53;1.25;;;;;;;4.95;99.70;96924.75;5008059;28;20022;-67
2022/01/09 05:36:23;;;;;;;8.70;1.13;;;;;;;4.96;99.51;96926.44;5007981;28;20022;-67
2022/01/09 05:38:48;;;;;;;1.05;0.75;;;;;;;4.87;99.34;96927.53;5007938;28;20022;-67
2022/01/09 05:41:14;;;;;;;6.35;1.38;;;;;;;4.90;99.87;96939.66;5021979;28;20025;-67
2022/01/09 05:43:40;;;;;;;8.68;1.50;;;;;;;4.84;99.27;96952.81;5027465;28;20056;-67
2022/01/09 05:46:06;;;;;;;9.80;1.52;;;;;;;4.78;99.71;96947.75;5027668;28;20187;-67
2022/01/09 05:48:32;;;;;;;5.53;1.25;;;;;;;4.83;99.69;96956.31;5027418;28;20037;-67
2022/01/09 05:50:57;;;;;;;12.75;1.48;;;;;;;4.83;99.01;96956.31;5027366;28;20071;-67
2022/01/09 05:53:23;;;;;;;5.43;1.30;;;;;;;4.82;98.67;96973.72;5027265;28;20080;-67
2022/01/09 05:55:48;;;;;;;6.13;1.20;;;;;;;4.78;98.19;96973.81;5027249;28;20268;-67
2022/01/09 05:58:14;;;;;;;2.60;0.98;;;;;;;4.88;98.69;96980.53;5027186;28;20029;-67
2022/01/09 06:00:39;;;;;;;9.35;1.20;;;;;;;4.80;98.31;96985.03;5018733;28;20071;-67
2022/01/09 06:03:05;;;;;;;10.93;2.15;;;;;;;4.76;97.78;96989.50;5025440;28;20030;-67
2022/01/09 06:05:30;;;;;;;10.23;0.85;;;;;;;4.69;97.88;96984.44;5026821;28;20088;-67
2022/01/09 06:07:56;;;;;;;16.70;2.00;;;;;;;4.85;98.40;96993.63;5026750;28;20087;-67
2022/01/09 06:10:21;;;;;;;14.27;1.25;;;;;;;4.76;98.22;96996.44;5026470;28;20045;-67
2022/01/09 06:12:47;;;;;;;4.88;0.63;;;;;;;4.73;97.75;97006.94;5010445;28;20018;-67
2022/01/09 06:15:12;;;;;;;13.70;1.83;;;;;;;4.67;97.90;97012.28;5007265;28;20026;-67
2022/01/09 06:17:39;;;;;;;12.88;2.05;;;;;;;4.76;98.26;97025.09;5008324;28;20022;-67
2022/01/09 06:20:05;;;;;;;11.00;1.02;;;;;;;4.71;97.96;97032.19;5019475;28;20268;-67
2022/01/09 06:22:31;;;;;;;8.18;1.25;;;;;;;4.64;98.00;97034.06;5026409;28;20026;-67
2022/01/09 06:24:56;;;;;;;10.55;1.40;;;;;;;4.60;98.17;97034.16;5026194;28;20029;-67
2022/01/09 06:27:22;;;;;;;4.03;1.05;;;;;;;4.49;98.38;97035.22;5014855;28;20042;-67
2022/01/09 06:29:48;;;;;;;5.70;1.40;;;;;;;4.49;98.13;97044.78;5008297;28;20030;-67
2022/01/09 06:32:13;;;;;;;4.47;1.23;;;;;;;4.64;98.88;97048.81;5007964;28;20085;-67
2022/01/09 06:34:40;;;;;;;9.35;1.77;;;;;;;4.59;97.39;97056.75;5006884;28;20036;-67
2022/01/09 06:37:05;;;;;;;5.30;1.48;;;;;;;4.50;97.53;97052.56;5007969;28;20022;-67
2022/01/09 06:39:31;;;;;;;10.63;1.30;;;;;;;4.41;97.74;97060.59;5016864;28;20376;-67
2022/01/09 06:41:56;;;;;;;5.90;1.48;;;;;;;4.49;97.20;97066.50;5008043;28;20381;-67
2022/01/09 06:44:21;;;;;;;5.25;0.80;;;;;;;4.37;98.29;97060.69;5006732;28;20026;-67
2022/01/09 06:46:47;;;;;;;9.30;1.38;;;;;;;4.29;97.98;97063.44;5018886;28;20034;-67
2022/01/09 06:49:12;;;;;;;4.05;0.88;;;;;;;4.35;97.88;97068.53;5026234;28;20033;-67
2022/01/09 06:51:38;;;;;;;10.40;1.63;;;;;;;4.32;98.39;97076.41;5022605;28;20025;-67
2022/01/09 06:54:04;;;;;;;13.32;1.42;;;;;;;4.40;98.21;97084.06;5015106;28;20413;-67
2022/01/09 06:56:29;;;;;;;8.60;1.42;;;;;;;4.28;99.07;97082.53;5020711;28;20081;-67
2022/01/09 06:58:55;;;;;;;3.60;1.35;;;;;;;4.24;99.22;97087.88;5016598;28;20041;-67
2022/01/09 07:01:20;;;;;;;3.20;0.75;;;;;;;4.20;99.41;97089.66;5025435;28;20085;-67
2022/01/09 07:03:46;;;;;;;6.60;0.75;;;;;;;4.17;99.76;97089.72;5017454;28;20380;-67
2022/01/09 07:06:11;;;;;;;10.00;1.05;;;;;;;4.29;98.38;97099.91;5018818;28;20044;-67
2022/01/09 07:08:37;;;;;;;5.18;1.48;;;;;;;4.37;98.26;97105.81;5025482;28;20017;-67
2022/01/09 07:11:04;;;;;;;9.45;1.70;;;;;;;4.30;97.60;97122.44;5025588;28;20068;-67
2022/01/09 07:13:30;;;;;;;2.40;1.15;;;;;;;4.29;97.74;97125.94;5025440;28;20013;-67
2022/01/09 07:15:55;;;;;;;6.20;1.13;;;;;;;4.26;96.52;97133.81;5011421;28;20026;-67
2022/01/09 07:18:21;;;;;;;6.82;1.23;;;;;;;4.27;97.06;97127.69;5006086;28;20195;-67
2022/01/09 07:20:46;;;;;;;10.63;1.25;;;;;;;4.38;95.83;97130.97;5010012;28;20017;-67
2022/01/09 07:23:11;;;;;;;9.63;1.35;;;;;;;4.36;95.36;97135.34;5023193;28;20025;-67
2022/01/09 07:25:37;;;;;;;6.35;1.48;;;;;;;4.45;94.43;97137.78;5005852;28;20034;-67
2022/01/09 07:28:03;;;;;;;16.77;1.85;;;;;;;4.43;93.92;97149.97;5005953;28;20076;-67
2022/01/09 07:30:29;;;;;;;6.30;0.88;;;;;;;4.50;94.80;97156.75;5005850;28;20022;-67
2022/01/09 07:32:56;;;;;;;15.40;1.30;;;;;;;4.42;93.60;97153.47;5005815;28;20061;-67
2022/01/09 07:35:22;;;;;;;2.15;0.75;;;;;;;4.42;93.92;97163.88;5004496;28;20096;-67
2022/01/09 07:37:47;;;;;;;15.60;1.20;;;;;;;4.39;93.63;97158.72;5022888;28;20076;-67
2022/01/09 07:40:13;;;;;;;13.98;1.65;;;;;;;4.29;94.10;97162.41;5024140;28;20320;-67
2022/01/09 07:42:39;;;;;;;10.57;1.40;;;;;;;4.46;94.76;97170.75;5024270;28;20045;-67
2022/01/09 07:45:07;;;;;;;13.45;1.20;;;;;;;4.36;94.58;97184.84;5024284;28;20072;-67
2022/01/09 07:47:36;;;;;;;10.80;2.33;;;;;;;4.36;95.46;97184.84;5024210;28;20022;-67
2022/01/09 07:50:03;;;;;;;5.55;1.17;;;;;;;4.46;95.71;97191.59;5010978;28;20030;-67
2022/01/09 07:52:29;;;;;;;9.00;1.45;;;;;;;4.42;95.31;97195.13;5004595;28;20029;-67
2022/01/09 07:54:54;;;;;;;17.00;2.20;;;;;;;4.35;95.76;97201.34;5008994;28;20269;-67
2022/01/09 07:57:20;;;;;;;8.27;1.63;;;;;;;4.46;95.94;97207.22;5015863;28;20101;-67
2022/01/09 07:59:45;;;;;;;9.88;1.27;;;;;;;4.43;95.32;97212.47;5004380;28;20030;-67
2022/01/09 08:02:11;;;;;;;8.10;1.85;;;;;;;4.43;96.34;97217.69;5018275;28;20026;-67
2022/01/09 08:04:36;;;;;;;6.95;1.52;;;;;;;4.49;96.43;97222.78;5024174;28;20044;-67
2022/01/09 08:07:02;;;;;;;2.88;1.33;;;;;;;4.41;96.37;97229.91;5023901;28;20067;-67
2022/01/09 08:09:27;;;;;;;19.08;1.83;;;;;;;4.49;96.80;97230.59;5028070;28;20028;-67
2022/01/09 08:11:55;;;;;;;13.70;1.35;;;;;;;4.57;96.40;97240.91;5034473;28;20021;-67
2022/01/09 08:14:20;;;;;;;12.80;1.75;;;;;;;4.58;96.80;97242.59;5041441;28;20025;-67
2022/01/09 08:16:46;;;;;;;14.20;2.47;;;;;;;4.66;96.27;97245.06;5043522;28;20024;-67
2022/01/09 08:19:11;;;;;;;7.63;1.50;;;;;;;4.69;96.63;97255.44;5035713;28;20313;-67
2022/01/09 08:21:36;;;;;;;12.23;2.13;;;;;;;4.70;96.78;97257.16;5022744;28;20029;-67
2022/01/09 08:24:02;;;;;;;7.05;1.80;;;;;;;4.57;96.90;97256.53;5023073;28;20093;-67
2022/01/09 08:26:27;;;;;;;12.40;2.10;;;;;;;4.53;97.08;97250.50;5021609;28;20077;-67
2022/01/09 08:28:54;;;;;;;11.10;1.75;;;;;;;4.52;97.79;97258.34;5017872;28;20085;-67
2022/01/09 08:31:20;;;;;;;6.13;1.42;;;;;;;4.40;98.21;97269.84;5012640;28;20029;-67
2022/01/09 08:33:47;;;;;;;6.07;1.80;;;;;;;4.53;98.40;97273.94;5023207;28;20226;-67
2022/01/09 08:36:13;;;;;;;14.70;1.67;;;;;;;4.51;98.04;97282.69;5020170;28;20109;-67
2022/01/09 08:38:39;;;;;;;10.48;2.28;;;;;;;4.44;98.28;97281.91;5017843;28;20091;-67
2022/01/09 08:41:05;;;;;;;15.52;1.90;;;;;;;4.52;97.54;97284.38;5022461;28;20026;-67
2022/01/09 08:43:31;;;;;;;16.23;1.55;;;;;;;4.52;97.89;97286.16;5022521;28;20025;-67
2022/01/09 08:45:57;;;;;;;10.23;1.38;;;;;;;4.52;97.47;97280.94;5021474;28;20021;-67
2022/01/09 08:48:22;;;;;;;14.20;2.22;;;;;;;4.46;98.28;97292.31;5017378;28;20336;-67
2022/01/09 08:50:48;;;;;;;12.13;1.88;;;;;;;4.43;98.00;97289.75;5023471;28;20029;-67
2022/01/09 08:53:13;;;;;;;8.55;1.60;;;;;;;4.44;98.90;97300.13;5021339;28;20025;-65
2022/01/09 08:55:39;;;;;;;12.10;2.42;;;;;;;4.49;99.00;97298.34;5023957;28;20068;-65
2022/01/09 08:58:04;;;;;;;14.15;2.00;;;;;;;4.35;98.58;97287.31;5024116;28;20029;-65
2022/01/09 09:00:29;;;;;;;16.95;1.73;;;;;;;4.52;98.33;97299.19;5024116;28;20033;-65
2022/01/09 09:02:55;;;;;;;18.08;1.98;;;;;;;4.47;98.04;97292.28;5023991;28;20084;-65
2022/01/09 09:05:21;;;;;;;14.82;1.92;;;;;;;4.45;98.05;97293.19;5024082;28;20028;-65
2022/01/09 09:07:47;;;;;;;5.63;0.95;;;;;;;4.44;98.54;97297.53;5024002;28;20072;-65
2022/01/09 09:10:13;;;;;;;6.65;2.00;;;;;;;4.48;98.66;97298.34;5024254;28;20021;-65
2022/01/09 09:12:39;;;;;;;10.93;1.92;;;;;;;4.58;98.70;97305.13;5023986;28;20254;-65
2022/01/09 09:15:05;;;;;;;10.40;1.60;;;;;;;4.74;98.11;97321.38;5023971;28;20026;-65
2022/01/09 09:17:31;;;;;;;14.35;1.80;;;;;;;4.67;98.22;97314.53;5023959;28;20072;-65
2022/01/09 09:19:57;;;;;;;5.00;1.35;;;;;;;4.77;98.05;97331.75;5023934;28;20093;-65
2022/01/09 09:22:23;;;;;;;7.82;1.52;;;;;;;4.92;97.65;97331.47;5023853;28;20026;-65
2022/01/09 09:24:49;;;;;;;12.10;1.45;;;;;;;4.74;97.37;97337.00;5023822;28;20052;-65
2022/01/09 09:27:15;;;;;;;9.15;1.10;;;;;;;4.74;98.04;97342.22;5023687;28;20337;-65
2022/01/09 09:29:41;;;;;;;4.60;1.23;;;;;;;4.61;96.93;97345.91;5023848;28;20101;-65
2022/01/09 09:32:06;;;;;;;8.13;0.98;;;;;;;4.33;95.47;97343.75;5023855;28;20129;-65
2022/01/09 09:34:32;;;;;;;12.45;1.48;;;;;;;4.09;96.81;97346.72;5023894;28;20022;-65
2022/01/09 09:36:57;;;;;;;4.05;1.10;;;;;;;3.97;97.10;97339.09;5023813;28;20025;-65
2022/01/09 09:39:23;;;;;;;2.08;0.63;;;;;;;3.93;97.64;97345.19;5023744;28;20033;-65
2022/01/09 09:41:50;;;;;;;4.35;0.95;;;;;;;3.77;97.33;97338.50;5023659;28;20222;-65
2022/01/09 09:44:16;;;;;;;1.92;0.80;;;;;;;3.77;97.88;97338.50;5023715;28;20028;-65
2022/01/09 09:46:49;;;;;;;1.15;0.60;;;;;;;3.73;98.00;97336.81;5021995;28;20026;-65
2022/01/09 09:49:16;;;;;;;1.63;0.60;;;;;;;3.71;98.58;97342.94;5023914;28;20129;-65
2022/01/09 09:51:42;;;;;;;1.67;0.68;;;;;;;3.73;99.09;97346.34;5023585;28;20030;-65
2022/01/09 09:54:07;;;;;;;7.50;1.02;;;;;;;3.74;99.14;97342.88;5023845;28;20032;-65
2022/01/09 09:56:33;;;;;;;8.45;1.42;;;;;;;3.77;98.96;97350.66;5023613;28;20052;-65
2022/01/09 09:58:59;;;;;;;5.10;0.80;;;;;;;3.88;99.68;97349.63;5023657;28;20026;-65
2022/01/09 10:01:36;;;;;;;3.08;1.00;;;;;;;3.94;99.44;97352.16;5027067;28;20040;-65
2022/01/09 10:04:07;;;;;;;0.77;0.70;;;;;;;4.01;99.75;97352.91;5027167;28;20064;-65
2022/01/09 10:06:53;;;;;;;8.95;0.90;;;;;;;4.14;99.77;97357.94;5027124;28;20026;-65
2022/01/09 10:09:20;;;;;;;5.15;1.15;;;;;;;4.21;100.00;97359.56;5026845;28;20033;-65
2022/01/09 10:11:57;;;;;;;5.00;1.83;;;;;;;4.32;99.89;97360.25;5026958;28;20061;-65
2022/01/09 10:14:26;;;;;;;7.50;1.30;;;;;;;4.43;100.00;97358.34;5026969;28;20025;-65
2022/01/09 10:17:07;;;;;;;6.25;1.92;;;;;;;4.43;99.79;97358.34;5026894;28;20029;-66
2022/01/09 10:19:44;;;;;;;5.25;1.15;;;;;;;4.53;100.00;97368.63;5026832;28;20030;-65
2022/01/09 10:22:33;;;;;;;3.55;1.00;;;;;;;4.52;100.00;97369.53;5026747;28;20226;-65
2022/01/09 10:25:30;;;;;;;2.72;0.90;;;;;;;4.47;100.00;97365.22;5026959;28;20206;-65
2022/01/09 10:27:58;;;;;;;5.07;1.52;;;;;;;4.53;100.00;97373.84;5026931;28;20364;-65
2022/01/09 10:30:27;;;;;;;5.20;1.35;;;;;;;4.62;100.00;97373.69;5026623;28;20033;-65
2022/01/09 10:32:55;;;;;;;5.10;0.88;;;;;;;4.77;100.00;97376.06;5026588;28;20029;-65
2022/01/09 10:35:21;;;;;;;15.00;1.42;;;;;;;4.74;100.00;97374.34;5026773;28;20205;-65
2022/01/09 10:37:49;;;;;;;5.05;0.95;;;;;;;4.65;100.00;97389.28;5026487;28;20084;-65
2022/01/09 10:40:21;;;;;;;3.72;0.98;;;;;;;4.63;100.00;97375.41;5026435;28;20060;-65
2022/01/09 10:43:01;;;;;;;4.40;1.25;;;;;;;4.82;99.36;97382.03;5026337;28;20029;-65
2022/01/09 10:45:27;;;;;;;5.18;0.90;;;;;;;4.83;98.99;97383.75;5026491;28;20329;-65
2022/01/09 10:47:55;;;;;;;3.20;0.95;;;;;;;4.98;99.37;97383.50;5026276;28;20032;-65
2022/01/09 10:50:30;;;;;;;6.18;1.20;;;;;;;4.97;98.91;97382.63;5026277;28;20101;-65
2022/01/09 10:53:14;;;;;;;2.25;0.80;;;;;;;5.09;99.92;97397.22;5026481;28;20310;-65
2022/01/09 10:55:40;;;;;;;4.93;1.48;;;;;;;5.02;98.76;97395.59;5026124;28;20052;-65
2022/01/09 10:58:22;;;;;;;11.32;1.33;;;;;;;5.08;97.87;97390.25;5026098;28;20030;-65
2022/01/09 11:01:05;;;;;;;5.72;1.13;;;;;;;5.12;97.41;97386.75;5026089;28;20083;-65
2022/01/09 11:03:30;;;;;;;12.10;2.25;;;;;;;5.03;97.01;97386.91;5025982;28;20033;-65
2022/01/09 11:05:56;;;;;;;24.88;2.25;;;;;;;4.94;97.35;97389.66;5025950;28;20253;-65
2022/01/09 11:08:21;;;;;;;8.60;1.30;;;;;;;4.99;97.77;97395.63;5025907;28;20025;-65
2022/01/09 11:10:47;;;;;;;11.32;1.20;;;;;;;4.99;98.18;97395.63;5025029;28;20221;-65
2022/01/09 11:13:16;;;;;;;2.28;0.73;;;;;;;5.00;98.53;97397.38;5025724;28;20249;-65
2022/01/09 11:16:32;;;;;;;4.53;1.02;;;;;;;5.02;98.45;97395.59;5025774;28;20344;-65
2022/01/09 11:18:28;;;;;;;4.43;1.10;;;;;;;5.00;98.45;97392.16;5025748;28;20383;-65
2022/01/09 11:20:54;;;;;;;5.88;0.98;;;;;;;5.09;98.57;97389.41;5025660;28;20218;-66
2022/01/09 11:23:23;;;;;;;6.05;1.27;;;;;;;5.23;99.06;97388.25;5025588;28;20088;-66
2022/01/09 11:25:53;;;;;;;5.43;1.20;;;;;;;5.45;99.22;97389.59;5025388;28;20245;-65
2022/01/09 11:28:24;;;;;;;6.85;1.52;;;;;;;5.68;98.44;97391.72;5025545;28;20333;-65
2022/01/09 11:30:58;;;;;;;5.72;1.23;;;;;;;5.72;97.16;97398.59;5025568;28;20028;-65
2022/01/09 11:33:39;;;;;;;7.60;1.05;;;;;;;5.81;96.49;97390.59;5025456;28;20025;-65
2022/01/09 11:36:23;;;;;;;6.53;1.08;;;;;;;5.84;95.97;97401.00;5025682;28;20026;-65